createdAt,value
2022-11-23T00:04:02.403Z,84.75
2022-11-23T00:08:10.247Z,84.63
2022-11-23T00:12:18.288Z,85.19
2022-11-23T00:16:27.804Z,84.99
2022-11-23T00:20:36.962Z,84.73
2022-11-23T00:24:44.682Z,85.02
2022-11-23T00:28:52.451Z,85.04
2022-11-23T00:33:00.317Z,85.10
2022-11-23T00:37:08.125Z,84.84
2022-11-23T00:41:17.664Z,84.69
2022-11-23T00:45:25.551Z,84.81
2022-11-23T00:49:33.244Z,84.90
2022-11-23T00:53:40.761Z,85.07
2022-11-23T00:57:48.972Z,85.08
2022-11-23T01:01:56.752Z,85.12
2022-11-23T01:06:10.037Z,85.01
2022-11-23T01:10:18.003Z,85.15
2022-11-23T01:14:27.486Z,85.01
2022-11-23T01:18:35.232Z,85.28
2022-11-23T01:22:42.760Z,85.18
2022-11-23T01:26:54.078Z,85.43
2022-11-23T01:31:08.978Z,85.24
2022-11-23T01:35:17.537Z,85.47
2022-11-23T01:39:24.794Z,85.51
2022-11-23T01:43:32.676Z,85.76
2022-11-23T01:47:40.279Z,85.91
2022-11-23T01:51:50.392Z,86.02
2022-11-23T01:56:00.356Z,86.15
2022-11-23T02:00:09.896Z,85.85
2022-11-23T02:04:21.573Z,86.02
2022-11-23T02:08:29.028Z,85.77
2022-11-23T02:12:36.280Z,85.60
2022-11-23T02:16:44.390Z,85.60
2022-11-23T02:20:52.584Z,85.46
2022-11-23T02:25:01.128Z,85.66
2022-11-23T02:29:11.708Z,85.47
2022-11-23T02:33:19.450Z,85.38
2022-11-23T02:37:27.212Z,85.33
2022-11-23T02:41:40.364Z,85.02
2022-11-23T02:45:51.527Z,85.09
2022-11-23T02:49:59.437Z,84.98
2022-11-23T02:54:07.632Z,85.10
2022-11-23T02:58:15.897Z,85.22
2022-11-23T03:02:24.086Z,85.07
2022-11-23T03:06:32.014Z,85.00
2022-11-23T03:10:39.492Z,85.53
2022-11-23T03:14:47.444Z,85.17
2022-11-23T03:18:56.125Z,85.32
2022-11-23T03:23:04.485Z,85.57
2022-11-23T03:27:12.078Z,85.53
2022-11-23T03:31:20.128Z,85.26
2022-11-23T03:35:28.356Z,85.45
2022-11-23T03:39:36.179Z,85.73
2022-11-23T03:43:43.833Z,85.54
2022-11-23T03:47:51.842Z,85.69
2022-11-23T03:52:00.619Z,85.42
2022-11-23T03:56:09.472Z,85.71
2022-11-23T04:00:18.457Z,85.30
2022-11-23T04:04:25.889Z,85.33
2022-11-23T04:08:34.156Z,85.78
2022-11-23T04:12:41.902Z,85.68
2022-11-23T04:16:49.816Z,85.54
2022-11-23T04:20:57.885Z,86.01
2022-11-23T04:25:05.321Z,86.04
2022-11-23T04:29:12.849Z,85.90
2022-11-23T04:33:20.189Z,86.28
2022-11-23T04:37:27.718Z,86.41
2022-11-23T04:41:36.161Z,86.35
2022-11-23T04:45:43.939Z,86.63
2022-11-23T04:49:51.376Z,86.63
2022-11-23T04:53:58.682Z,86.72
2022-11-23T04:58:06.655Z,86.65
2022-11-23T05:02:14.326Z,86.66
2022-11-23T05:06:22.329Z,86.46
2022-11-23T05:10:29.697Z,86.39
2022-11-23T05:14:37.572Z,86.27
2022-11-23T05:18:45.792Z,86.49
2022-11-23T05:22:53.602Z,86.43
2022-11-23T05:27:02.090Z,86.49
2022-11-23T05:31:10.926Z,86.65
2022-11-23T05:35:18.220Z,86.43
2022-11-23T05:39:26.528Z,86.21
2022-11-23T05:43:38.312Z,86.33
2022-11-23T05:47:45.923Z,86.11
2022-11-23T05:51:55.073Z,85.99
2022-11-23T05:56:03.798Z,86.05
2022-11-23T06:00:15.669Z,86.01
2022-11-23T06:04:23.419Z,85.61
2022-11-23T06:08:31.109Z,85.60
2022-11-23T06:12:38.984Z,85.60
2022-11-23T06:16:46.520Z,85.63
2022-11-23T06:20:54.208Z,85.58
2022-11-23T06:25:01.978Z,85.82
2022-11-23T06:29:09.907Z,85.70
2022-11-23T06:33:19.287Z,85.76
2022-11-23T06:37:27.319Z,85.79
2022-11-23T06:41:34.820Z,86.31
2022-11-23T06:45:42.627Z,86.23
2022-11-23T06:49:50.100Z,86.04
2022-11-23T06:53:57.982Z,86.41
2022-11-23T06:58:06.478Z,86.39
2022-11-23T07:02:14.921Z,86.48
2022-11-23T07:06:23.664Z,86.38
2022-11-23T07:10:34.308Z,86.48
2022-11-23T07:14:41.847Z,86.15
2022-11-23T07:18:50.208Z,86.21
2022-11-23T07:23:03.807Z,86.07
2022-11-23T07:27:11.067Z,86.38
2022-11-23T07:31:19.418Z,86.32
2022-11-23T07:35:28.064Z,86.28
2022-11-23T07:39:56.247Z,86.62
2022-11-23T07:44:03.960Z,86.65
2022-11-23T07:48:13.366Z,86.42
2022-11-23T07:52:23.579Z,86.62
2022-11-23T07:56:31.846Z,86.89
2022-11-23T08:00:39.590Z,86.86
2022-11-23T08:04:47.649Z,86.79
2022-11-23T08:08:56.318Z,86.62
2022-11-23T08:13:07.205Z,86.26
2022-11-23T08:17:14.995Z,86.53
2022-11-23T08:21:22.597Z,86.52
2022-11-23T08:25:32.122Z,86.56
2022-11-23T08:29:39.626Z,86.42
2022-11-23T08:33:48.454Z,86.23
2022-11-23T08:37:55.996Z,86.68
2022-11-23T08:42:04.638Z,86.53
2022-11-23T08:46:12.040Z,86.53
2022-11-23T08:50:20.204Z,86.70
2022-11-23T08:54:27.622Z,86.42
2022-11-23T08:58:36.893Z,86.11
2022-11-23T09:02:44.430Z,86.54
2022-11-23T09:06:51.836Z,86.53
2022-11-23T09:11:02.577Z,86.08
2022-11-23T09:15:11.974Z,86.81
2022-11-23T09:19:19.589Z,86.70
2022-11-23T09:23:29.531Z,86.97
2022-11-23T09:27:37.894Z,87.02
2022-11-23T09:31:45.388Z,86.59
2022-11-23T09:35:59.458Z,86.58
2022-11-23T09:40:09.542Z,86.64
2022-11-23T09:44:23.015Z,86.57
2022-11-23T09:48:45.143Z,86.29
2022-11-23T09:52:52.800Z,86.30
2022-11-23T09:57:02.089Z,86.14
2022-11-23T10:01:13.270Z,86.05
2022-11-23T10:05:23.883Z,85.87
2022-11-23T10:09:43.167Z,85.55
2022-11-23T10:13:58.961Z,85.31
2022-11-23T10:18:26.842Z,85.67
2022-11-23T10:22:39.987Z,85.60
2022-11-23T10:26:49.742Z,85.38
2022-11-23T10:31:02.918Z,85.21
2022-11-23T10:35:15.906Z,85.00
2022-11-23T10:39:28.812Z,84.96
2022-11-23T10:43:39.184Z,85.02
2022-11-23T10:47:53.020Z,85.14
2022-11-23T10:52:03.705Z,85.28
2022-11-23T10:56:14.773Z,84.83
2022-11-23T11:00:30.083Z,84.80
2022-11-23T11:04:40.258Z,85.19
2022-11-23T11:08:55.837Z,84.87
2022-11-23T11:13:03.522Z,85.28
2022-11-23T11:17:30.467Z,84.83
2022-11-23T11:21:44.774Z,84.68
2022-11-23T11:25:54.402Z,84.20
2022-11-23T11:30:21.374Z,84.08
2022-11-23T11:34:33.255Z,83.90
2022-11-23T11:38:48.584Z,83.67
2022-11-23T11:43:12.593Z,84.11
2022-11-23T11:47:27.500Z,83.62
2022-11-23T11:51:40.818Z,83.36
2022-11-23T11:55:54.959Z,83.65
2022-11-23T12:00:07.650Z,83.06
2022-11-23T12:04:20.998Z,82.70
2022-11-23T12:08:34.997Z,82.64
2022-11-23T12:12:43.869Z,82.71
2022-11-23T12:17:24.888Z,82.27
2022-11-23T12:21:51.383Z,82.58
2022-11-23T12:26:17.950Z,82.63
2022-11-23T12:30:28.422Z,82.35
2022-11-23T12:34:48.337Z,82.10
2022-11-23T12:39:02.352Z,82.11
2022-11-23T12:43:15.517Z,81.89
2022-11-23T12:47:32.932Z,81.85
2022-11-23T12:51:50.534Z,81.70
2022-11-23T12:56:05.595Z,81.50
2022-11-23T13:00:24.001Z,81.40
2022-11-23T13:04:52.617Z,81.70
2022-11-23T13:09:32.756Z,81.17
2022-11-23T13:13:55.022Z,81.29
2022-11-23T13:18:11.855Z,81.34
2022-11-23T13:22:22.254Z,81.26
2022-11-23T13:26:31.799Z,81.20
2022-11-23T13:35:52.048Z,81.02
2022-11-23T13:40:23.733Z,80.86
2022-11-23T13:44:34.731Z,81.19
2022-11-23T13:48:57.136Z,81.02
2022-11-23T13:53:06.116Z,81.15
2022-11-23T13:57:16.907Z,81.09
2022-11-23T14:02:03.791Z,80.90
2022-11-23T14:06:14.139Z,80.58
2022-11-23T14:10:24.513Z,80.49
2022-11-23T14:14:41.369Z,80.74
2022-11-23T14:19:04.970Z,80.66
2022-11-23T14:23:35.479Z,80.55
2022-11-23T14:27:53.238Z,80.62
2022-11-23T14:32:21.537Z,80.60
2022-11-23T14:36:39.489Z,80.26
2022-11-23T14:40:54.455Z,80.43
2022-11-23T14:45:06.622Z,80.40
2022-11-23T14:49:17.684Z,80.50
2022-11-23T14:53:32.659Z,80.50
2022-11-23T14:57:44.035Z,80.75
2022-11-23T15:01:53.653Z,80.83
2022-11-23T15:06:07.719Z,80.63
2022-11-23T15:10:25.851Z,80.64
2022-11-23T15:14:33.975Z,80.66
2022-11-23T15:18:42.661Z,80.38
2022-11-23T15:22:50.571Z,80.69
2022-11-23T15:27:11.109Z,80.97
2022-11-23T15:31:32.487Z,80.77
2022-11-23T15:35:41.203Z,80.77
2022-11-23T15:39:49.577Z,81.34
2022-11-23T15:44:00.051Z,81.37
2022-11-23T15:48:11.134Z,81.26
2022-11-23T15:52:20.333Z,81.44
2022-11-23T15:56:30.869Z,81.63
2022-11-23T16:00:39.621Z,81.83
2022-11-23T16:04:47.730Z,81.67
2022-11-23T16:08:55.877Z,81.53
2022-11-23T16:13:06.258Z,81.77
2022-11-23T16:17:20.641Z,81.53
2022-11-23T16:21:31.357Z,81.49
2022-11-23T16:25:39.018Z,81.85
2022-11-23T16:29:47.047Z,81.57
2022-11-23T16:33:55.113Z,81.62
2022-11-23T16:38:03.640Z,81.74
2022-11-23T16:42:16.039Z,81.63
2022-11-23T16:46:24.462Z,81.57
2022-11-23T16:50:34.325Z,81.76
2022-11-23T16:54:41.998Z,81.31
2022-11-23T16:58:49.759Z,81.23
2022-11-23T17:02:57.034Z,81.57
2022-11-23T17:07:05.533Z,81.64
2022-11-23T17:11:16.730Z,81.84
2022-11-23T17:15:25.477Z,81.39
2022-11-23T17:19:33.325Z,81.41
2022-11-23T17:23:42.786Z,81.42
2022-11-23T17:27:50.318Z,81.22
2022-11-23T17:31:59.458Z,81.82
2022-11-23T17:36:07.768Z,81.78
2022-11-23T17:40:18.633Z,81.73
2022-11-23T17:44:26.251Z,81.62
2022-11-23T17:48:35.165Z,81.89
2022-11-23T17:52:45.213Z,82.05
2022-11-23T17:56:53.470Z,82.13
2022-11-23T18:01:00.642Z,82.02
2022-11-23T18:05:09.256Z,81.49
2022-11-23T18:09:16.573Z,81.52
2022-11-23T18:13:24.627Z,81.61
2022-11-23T18:17:32.896Z,81.22
2022-11-23T18:21:42.710Z,81.33
2022-11-23T18:25:53.551Z,81.27
2022-11-23T18:30:04.036Z,81.33
2022-11-23T18:34:13.216Z,80.79
2022-11-23T18:38:21.195Z,80.29
2022-11-23T18:42:30.117Z,80.33
2022-11-23T18:46:39.613Z,80.11
2022-11-23T18:50:46.995Z,80.01
2022-11-23T18:54:54.711Z,79.68
2022-11-23T18:59:02.905Z,79.55
2022-11-23T19:03:10.368Z,79.52
2022-11-23T19:07:23.559Z,79.43
2022-11-23T19:11:34.530Z,79.59
2022-11-23T19:15:42.782Z,79.62
2022-11-23T19:19:50.151Z,79.73
2022-11-23T19:23:59.603Z,80.02
2022-11-23T19:28:07.688Z,80.29
2022-11-23T19:32:15.467Z,79.93
2022-11-23T19:36:25.740Z,80.11
2022-11-23T19:40:33.322Z,80.11
2022-11-23T19:44:40.858Z,79.99
2022-11-23T19:48:49.009Z,80.20
2022-11-23T19:53:11.990Z,80.47
2022-11-23T19:57:21.446Z,80.79
2022-11-23T20:01:31.821Z,81.26
2022-11-23T20:05:39.817Z,81.53
2022-11-23T20:09:48.291Z,81.30
2022-11-23T20:13:58.155Z,81.41
2022-11-23T20:18:05.450Z,81.28
2022-11-23T20:22:14.853Z,81.61
2022-11-23T20:26:22.631Z,81.94
2022-11-23T20:30:29.910Z,82.05
2022-11-23T20:34:38.028Z,82.06
2022-11-23T20:38:46.889Z,82.33
2022-11-23T20:42:54.532Z,82.09
2022-11-23T20:47:06.426Z,82.27
2022-11-23T20:51:16.957Z,82.21
2022-11-23T20:55:25.107Z,82.29
2022-11-23T20:59:34.612Z,82.54
2022-11-23T21:03:43.377Z,82.53
2022-11-23T21:07:52.327Z,82.72
2022-11-23T21:12:18.563Z,82.72
2022-11-23T21:16:26.587Z,82.60
2022-11-23T21:20:36.658Z,82.80
2022-11-23T21:24:44.475Z,82.71
2022-11-23T21:28:52.744Z,82.77
2022-11-23T21:33:00.179Z,82.29
2022-11-23T21:37:07.547Z,82.45
2022-11-23T21:41:17.378Z,82.47
2022-11-23T21:45:24.690Z,82.36
2022-11-23T21:49:32.223Z,82.54
2022-11-23T21:53:41.990Z,82.41
2022-11-23T21:57:50.036Z,82.52
2022-11-23T22:01:58.934Z,82.70
2022-11-23T22:06:07.377Z,82.68
2022-11-23T22:10:15.241Z,82.73
2022-11-23T22:14:22.886Z,82.43
2022-11-23T22:18:30.610Z,82.21
2022-11-23T22:22:38.484Z,81.95
2022-11-23T22:26:46.428Z,82.17
2022-11-23T22:30:57.002Z,82.13
2022-11-23T22:35:04.991Z,82.12
2022-11-23T22:39:12.799Z,82.06
2022-11-23T22:43:20.842Z,82.03
2022-11-23T22:47:28.489Z,82.14
2022-11-23T22:51:36.423Z,82.18
2022-11-23T22:55:44.051Z,82.29
2022-11-23T22:59:53.386Z,82.21
2022-11-23T23:04:06.099Z,82.14
2022-11-23T23:08:14.983Z,81.91
2022-11-23T23:12:22.599Z,82.03
2022-11-23T23:16:31.484Z,82.08
2022-11-23T23:20:39.632Z,82.01
2022-11-23T23:24:47.443Z,81.99
2022-11-23T23:28:58.741Z,82.36
2022-11-23T23:33:06.323Z,82.59
2022-11-23T23:37:16.685Z,82.63
2022-11-23T23:41:24.767Z,83.04
2022-11-23T23:45:32.468Z,83.39
2022-11-23T23:49:42.601Z,83.61
2022-11-23T23:53:51.049Z,83.61
2022-11-23T23:57:59.842Z,84.01
